sensor_id;sensor_type;location;lat;lon;timestamp;temperature;humidity
46492;DHT22;32206;51.446;6.792;2023-08-21T00:00:14;21.00;99.90
46492;DHT22;32206;51.446;6.792;2023-08-21T00:02:40;21.00;1.00
46492;DHT22;32206;51.446;6.792;2023-08-21T00:05:06;21.00;99.90
46492;DHT22;32206;51.446;6.792;2023-08-21T00:07:32;20.90;99.90
46492;DHT22;32206;51.446;6.792;2023-08-21T00:09:57;20.90;99.90
46492;DHT22;32206;51.446;6.792;2023-08-21T00:12:23;20.90;1.00
46492;DHT22;32206;51.446;6.792;2023-08-21T00:14:48;20.90;12.90
46492;DHT22;32206;51.446;6.792;2023-08-21T00:17:14;20.90;99.90
46492;DHT22;32206;51.446;6.792;2023-08-21T00:19:40;20.90;99.90
46492;DHT22;32206;51.446;6.792;2023-08-21T00:22:05;20.90;1.00
46492;DHT22;32206;51.446;6.792;2023-08-21T00:24:31;20.80;1.00
46492;DHT22;32206;51.446;6.792;2023-08-21T00:26:56;20.80;99.90
46492;DHT22;32206;51.446;6.792;2023-08-21T00:32:44;20.80;99.90
46492;DHT22;32206;51.446;6.792;2023-08-21T00:35:10;20.70;35.40
46492;DHT22;32206;51.446;6.792;2023-08-21T00:37:36;20.70;99.90
46492;DHT22;32206;51.446;6.792;2023-08-21T00:40:02;20.70;1.00
46492;DHT22;32206;51.446;6.792;2023-08-21T00:46:09;20.70;99.90
46492;DHT22;32206;51.446;6.792;2023-08-21T00:48:36;20.70;99.90
46492;DHT22;32206;51.446;6.792;2023-08-21T00:54:23;20.60;99.90
46492;DHT22;32206;51.446;6.792;2023-08-21T00:56:49;20.60;99.90
46492;DHT22;32206;51.446;6.792;2023-08-21T00:59:18;20.60;22.20
46492;DHT22;32206;51.446;6.792;2023-08-21T01:01:45;20.60;99.90
46492;DHT22;32206;51.446;6.792;2023-08-21T01:04:11;20.70;99.90
46492;DHT22;32206;51.446;6.792;2023-08-21T01:06:37;20.60;99.90
46492;DHT22;32206;51.446;6.792;2023-08-21T01:17:24;20.50;99.90
46492;DHT22;32206;51.446;6.792;2023-08-21T01:23:09;20.50;99.90
46492;DHT22;32206;51.446;6.792;2023-08-21T01:25:35;20.50;99.90
46492;DHT22;32206;51.446;6.792;2023-08-21T01:28:01;20.50;99.90
46492;DHT22;32206;51.446;6.792;2023-08-21T01:40:33;20.40;99.50
46492;DHT22;32206;51.446;6.792;2023-08-21T01:42:58;20.40;99.90
46492;DHT22;32206;51.446;6.792;2023-08-21T01:45:24;20.40;1.00
46492;DHT22;32206;51.446;6.792;2023-08-21T01:51:37;20.40;99.90
46492;DHT22;32206;51.446;6.792;2023-08-21T01:54:02;20.40;1.00
46492;DHT22;32206;51.446;6.792;2023-08-21T01:56:28;20.30;99.90
46492;DHT22;32206;51.446;6.792;2023-08-21T01:58:53;20.30;58.70
46492;DHT22;32206;51.446;6.792;2023-08-21T02:01:19;20.30;99.90
46492;DHT22;32206;51.446;6.792;2023-08-21T02:03:45;20.20;99.90
46492;DHT22;32206;51.446;6.792;2023-08-21T02:06:11;20.20;99.90
46492;DHT22;32206;51.446;6.792;2023-08-21T02:08:37;20.20;99.90
46492;DHT22;32206;51.446;6.792;2023-08-21T02:11:02;20.10;1.00
46492;DHT22;32206;51.446;6.792;2023-08-21T02:13:28;20.10;1.00
46492;DHT22;32206;51.446;6.792;2023-08-21T02:15:54;20.00;99.90
46492;DHT22;32206;51.446;6.792;2023-08-21T02:18:19;20.00;99.90
46492;DHT22;32206;51.446;6.792;2023-08-21T02:20:47;19.90;99.90
46492;DHT22;32206;51.446;6.792;2023-08-21T02:23:14;19.90;99.90
46492;DHT22;32206;51.446;6.792;2023-08-21T02:25:40;19.90;99.90
46492;DHT22;32206;51.446;6.792;2023-08-21T02:28:06;19.90;99.90
46492;DHT22;32206;51.446;6.792;2023-08-21T02:36:57;19.80;94.70
46492;DHT22;32206;51.446;6.792;2023-08-21T02:39:23;19.80;99.90
46492;DHT22;32206;51.446;6.792;2023-08-21T02:41:49;19.70;1.00
46492;DHT22;32206;51.446;6.792;2023-08-21T02:44:15;19.70;84.70
46492;DHT22;32206;51.446;6.792;2023-08-21T02:46:41;19.80;1.00
46492;DHT22;32206;51.446;6.792;2023-08-21T02:49:06;19.80;1.00
46492;DHT22;32206;51.446;6.792;2023-08-21T02:51:32;19.70;38.60
46492;DHT22;32206;51.446;6.792;2023-08-21T02:53:57;19.80;99.90
46492;DHT22;32206;51.446;6.792;2023-08-21T02:56:23;19.70;99.90
46492;DHT22;32206;51.446;6.792;2023-08-21T02:58:49;19.70;99.90
46492;DHT22;32206;51.446;6.792;2023-08-21T03:01:14;19.70;99.90
46492;DHT22;32206;51.446;6.792;2023-08-21T03:03:40;19.70;99.90
46492;DHT22;32206;51.446;6.792;2023-08-21T03:06:05;19.70;99.90
46492;DHT22;32206;51.446;6.792;2023-08-21T03:08:31;19.70;99.90
46492;DHT22;32206;51.446;6.792;2023-08-21T03:10:57;19.60;99.90
46492;DHT22;32206;51.446;6.792;2023-08-21T03:13:22;19.60;99.90
46492;DHT22;32206;51.446;6.792;2023-08-21T03:15:48;19.60;99.90
46492;DHT22;32206;51.446;6.792;2023-08-21T03:18:14;19.60;1.00
46492;DHT22;32206;51.446;6.792;2023-08-21T03:20:48;19.60;1.00
46492;DHT22;32206;51.446;6.792;2023-08-21T03:23:14;19.60;1.00
46492;DHT22;32206;51.446;6.792;2023-08-21T03:25:40;19.70;1.00
46492;DHT22;32206;51.446;6.792;2023-08-21T03:28:05;19.70;1.00
46492;DHT22;32206;51.446;6.792;2023-08-21T03:30:31;19.70;99.90
46492;DHT22;32206;51.446;6.792;2023-08-21T03:32:56;19.70;99.90
46492;DHT22;32206;51.446;6.792;2023-08-21T03:35:22;19.70;1.00
46492;DHT22;32206;51.446;6.792;2023-08-21T03:37:48;19.70;1.00
46492;DHT22;32206;51.446;6.792;2023-08-21T03:40:13;19.60;1.00
46492;DHT22;32206;51.446;6.792;2023-08-21T03:42:39;19.60;99.90
46492;DHT22;32206;51.446;6.792;2023-08-21T03:45:05;19.60;99.90
46492;DHT22;32206;51.446;6.792;2023-08-21T03:47:31;19.60;99.90
46492;DHT22;32206;51.446;6.792;2023-08-21T03:49:57;19.60;99.90
46492;DHT22;32206;51.446;6.792;2023-08-21T03:59:39;19.50;99.90
46492;DHT22;32206;51.446;6.792;2023-08-21T04:02:04;19.50;99.90
46492;DHT22;32206;51.446;6.792;2023-08-21T04:04:30;19.50;99.90
46492;DHT22;32206;51.446;6.792;2023-08-21T04:06:56;19.50;99.90
46492;DHT22;32206;51.446;6.792;2023-08-21T04:13:18;19.40;99.90
46492;DHT22;32206;51.446;6.792;2023-08-21T04:15:48;19.40;99.90
46492;DHT22;32206;51.446;6.792;2023-08-21T04:18:14;19.40;99.90
46492;DHT22;32206;51.446;6.792;2023-08-21T04:20:39;19.40;99.90
46492;DHT22;32206;51.446;6.792;2023-08-21T04:23:05;19.40;99.90
46492;DHT22;32206;51.446;6.792;2023-08-21T04:25:30;19.40;99.90
46492;DHT22;32206;51.446;6.792;2023-08-21T04:34:40;19.40;99.90
46492;DHT22;32206;51.446;6.792;2023-08-21T04:37:06;19.40;99.90
46492;DHT22;32206;51.446;6.792;2023-08-21T04:39:32;19.50;99.90
46492;DHT22;32206;51.446;6.792;2023-08-21T04:41:58;19.50;99.90
46492;DHT22;32206;51.446;6.792;2023-08-21T04:44:23;19.40;99.90
46492;DHT22;32206;51.446;6.792;2023-08-21T04:46:50;19.50;99.90
46492;DHT22;32206;51.446;6.792;2023-08-21T04:56:00;19.50;99.90
46492;DHT22;32206;51.446;6.792;2023-08-21T04:58:26;19.50;99.90
46492;DHT22;32206;51.446;6.792;2023-08-21T05:00:51;19.50;99.90
46492;DHT22;32206;51.446;6.792;2023-08-21T05:03:17;19.50;99.90
46492;DHT22;32206;51.446;6.792;2023-08-21T05:05:52;19.50;99.90
46492;DHT22;32206;51.446;6.792;2023-08-21T05:08:18;19.50;99.90
46492;DHT22;32206;51.446;6.792;2023-08-21T05:10:43;19.50;99.90
46492;DHT22;32206;51.446;6.792;2023-08-21T05:13:09;19.50;99.90
46492;DHT22;32206;51.446;6.792;2023-08-21T05:15:35;19.50;99.90
46492;DHT22;32206;51.446;6.792;2023-08-21T05:18:00;19.50;99.90
46492;DHT22;32206;51.446;6.792;2023-08-21T05:20:26;19.50;99.90
46492;DHT22;32206;51.446;6.792;2023-08-21T05:22:51;19.50;99.90
46492;DHT22;32206;51.446;6.792;2023-08-21T05:25:17;19.50;99.90
46492;DHT22;32206;51.446;6.792;2023-08-21T05:27:43;19.50;99.90
46492;DHT22;32206;51.446;6.792;2023-08-21T05:30:09;19.50;99.90
46492;DHT22;32206;51.446;6.792;2023-08-21T05:32:36;19.50;99.90
46492;DHT22;32206;51.446;6.792;2023-08-21T05:35:01;19.60;99.90
46492;DHT22;32206;51.446;6.792;2023-08-21T05:37:27;19.60;99.90
46492;DHT22;32206;51.446;6.792;2023-08-21T05:43:16;19.70;99.90
46492;DHT22;32206;51.446;6.792;2023-08-21T05:45:42;19.70;99.90
46492;DHT22;32206;51.446;6.792;2023-08-21T05:48:07;19.80;99.90
46492;DHT22;32206;51.446;6.792;2023-08-21T05:54:20;19.80;99.90
46492;DHT22;32206;51.446;6.792;2023-08-21T05:56:46;19.90;99.90
46492;DHT22;32206;51.446;6.792;2023-08-21T05:59:11;19.90;99.90
46492;DHT22;32206;51.446;6.792;2023-08-21T06:01:38;19.90;99.90
46492;DHT22;32206;51.446;6.792;2023-08-21T06:04:04;20.00;1.00
46492;DHT22;32206;51.446;6.792;2023-08-21T06:06:29;20.10;1.00
46492;DHT22;32206;51.446;6.792;2023-08-21T06:08:55;20.20;1.00
46492;DHT22;32206;51.446;6.792;2023-08-21T06:11:20;20.20;1.00
46492;DHT22;32206;51.446;6.792;2023-08-21T06:13:47;20.20;15.20
46492;DHT22;32206;51.446;6.792;2023-08-21T06:16:13;20.30;99.90
46492;DHT22;32206;51.446;6.792;2023-08-21T06:22:02;20.40;99.90
46492;DHT22;32206;51.446;6.792;2023-08-21T06:24:27;20.50;1.00
46492;DHT22;32206;51.446;6.792;2023-08-21T06:26:53;20.50;99.90
46492;DHT22;32206;51.446;6.792;2023-08-21T06:29:19;20.60;99.90
46492;DHT22;32206;51.446;6.792;2023-08-21T06:31:46;20.70;99.90
46492;DHT22;32206;51.446;6.792;2023-08-21T06:34:12;20.80;99.90
46492;DHT22;32206;51.446;6.792;2023-08-21T06:40:00;20.80;1.00
46492;DHT22;32206;51.446;6.792;2023-08-21T06:42:25;20.90;1.00
46492;DHT22;32206;51.446;6.792;2023-08-21T06:44:51;20.90;44.70
46492;DHT22;32206;51.446;6.792;2023-08-21T06:47:17;20.90;1.00
46492;DHT22;32206;51.446;6.792;2023-08-21T06:49:42;20.90;41.70
46492;DHT22;32206;51.446;6.792;2023-08-21T06:52:08;20.90;99.90
46492;DHT22;32206;51.446;6.792;2023-08-21T06:54:33;21.00;1.00
46492;DHT22;32206;51.446;6.792;2023-08-21T06:56:59;20.90;99.90
46492;DHT22;32206;51.446;6.792;2023-08-21T06:59:24;20.90;99.90
46492;DHT22;32206;51.446;6.792;2023-08-21T07:01:50;21.00;99.90
46492;DHT22;32206;51.446;6.792;2023-08-21T07:04:16;21.10;1.00
46492;DHT22;32206;51.446;6.792;2023-08-21T07:06:42;21.20;1.00
46492;DHT22;32206;51.446;6.792;2023-08-21T07:09:08;21.30;99.90
46492;DHT22;32206;51.446;6.792;2023-08-21T07:11:34;21.40;99.90
46492;DHT22;32206;51.446;6.792;2023-08-21T07:13:59;21.50;99.90
46492;DHT22;32206;51.446;6.792;2023-08-21T07:16:25;21.60;1.00
46492;DHT22;32206;51.446;6.792;2023-08-21T07:18:52;21.70;99.90
46492;DHT22;32206;51.446;6.792;2023-08-21T07:21:17;21.80;33.40
46492;DHT22;32206;51.446;6.792;2023-08-21T07:23:43;21.90;1.00
46492;DHT22;32206;51.446;6.792;2023-08-21T07:26:09;21.90;99.90
46492;DHT22;32206;51.446;6.792;2023-08-21T07:28:34;21.90;99.90
46492;DHT22;32206;51.446;6.792;2023-08-21T07:31:01;22.00;99.90
46492;DHT22;32206;51.446;6.792;2023-08-21T07:33:27;22.10;99.90
46492;DHT22;32206;51.446;6.792;2023-08-21T07:36:01;22.10;1.00
46492;DHT22;32206;51.446;6.792;2023-08-21T07:38:27;22.20;1.00
46492;DHT22;32206;51.446;6.792;2023-08-21T07:41:07;22.30;99.90
46492;DHT22;32206;51.446;6.792;2023-08-21T07:43:33;22.40;1.00
46492;DHT22;32206;51.446;6.792;2023-08-21T07:46:06;22.40;99.90
46492;DHT22;32206;51.446;6.792;2023-08-21T07:48:33;22.50;99.90
46492;DHT22;32206;51.446;6.792;2023-08-21T07:50:59;22.60;99.90
46492;DHT22;32206;51.446;6.792;2023-08-21T07:53:25;22.70;99.90
46492;DHT22;32206;51.446;6.792;2023-08-21T07:55:52;22.80;99.90
46492;DHT22;32206;51.446;6.792;2023-08-21T07:58:18;22.80;99.90
46492;DHT22;32206;51.446;6.792;2023-08-21T08:00:43;22.90;99.90
46492;DHT22;32206;51.446;6.792;2023-08-21T08:03:09;22.90;99.90
46492;DHT22;32206;51.446;6.792;2023-08-21T08:05:36;23.00;99.90
46492;DHT22;32206;51.446;6.792;2023-08-21T08:08:02;23.00;99.90
46492;DHT22;32206;51.446;6.792;2023-08-21T08:10:28;23.20;99.90
46492;DHT22;32206;51.446;6.792;2023-08-21T08:12:53;23.30;99.90
46492;DHT22;32206;51.446;6.792;2023-08-21T08:15:20;23.30;99.90
46492;DHT22;32206;51.446;6.792;2023-08-21T08:17:46;23.30;87.30
46492;DHT22;32206;51.446;6.792;2023-08-21T08:23:34;23.50;99.90
46492;DHT22;32206;51.446;6.792;2023-08-21T08:25:59;23.50;99.90
46492;DHT22;32206;51.446;6.792;2023-08-21T08:32:03;23.60;58.70
46492;DHT22;32206;51.446;6.792;2023-08-21T08:34:28;23.70;79.80
46492;DHT22;32206;51.446;6.792;2023-08-21T08:40:16;23.80;1.00
46492;DHT22;32206;51.446;6.792;2023-08-21T08:42:42;23.80;1.00
46492;DHT22;32206;51.446;6.792;2023-08-21T08:45:08;23.80;1.00
46492;DHT22;32206;51.446;6.792;2023-08-21T08:47:35;23.90;1.00
46492;DHT22;32206;51.446;6.792;2023-08-21T08:53:23;24.10;1.00
46492;DHT22;32206;51.446;6.792;2023-08-21T08:59:10;24.40;1.00
46492;DHT22;32206;51.446;6.792;2023-08-21T09:01:36;24.50;1.00
46492;DHT22;32206;51.446;6.792;2023-08-21T09:04:11;24.50;1.00
46492;DHT22;32206;51.446;6.792;2023-08-21T09:06:37;24.60;1.00
46492;DHT22;32206;51.446;6.792;2023-08-21T09:09:02;24.60;1.00
46492;DHT22;32206;51.446;6.792;2023-08-21T09:18:03;24.50;1.00
46492;DHT22;32206;51.446;6.792;2023-08-21T09:20:35;24.70;1.00
46492;DHT22;32206;51.446;6.792;2023-08-21T09:23:01;24.90;1.00
46492;DHT22;32206;51.446;6.792;2023-08-21T09:25:27;25.00;1.00
46492;DHT22;32206;51.446;6.792;2023-08-21T09:27:53;25.10;1.00
46492;DHT22;32206;51.446;6.792;2023-08-21T09:30:19;25.10;1.00
46492;DHT22;32206;51.446;6.792;2023-08-21T09:32:56;25.10;1.00
46492;DHT22;32206;51.446;6.792;2023-08-21T09:35:23;25.10;1.00
46492;DHT22;32206;51.446;6.792;2023-08-21T09:37:49;25.30;1.00
46492;DHT22;32206;51.446;6.792;2023-08-21T09:40:15;25.40;1.00
46492;DHT22;32206;51.446;6.792;2023-08-21T09:42:41;25.50;1.00
46492;DHT22;32206;51.446;6.792;2023-08-21T09:45:07;25.70;1.00
46492;DHT22;32206;51.446;6.792;2023-08-21T09:47:33;25.80;1.00
46492;DHT22;32206;51.446;6.792;2023-08-21T09:50:08;26.00;1.00
46492;DHT22;32206;51.446;6.792;2023-08-21T09:52:35;26.20;1.00
46492;DHT22;32206;51.446;6.792;2023-08-21T09:55:01;26.20;1.00
46492;DHT22;32206;51.446;6.792;2023-08-21T09:57:29;26.30;99.90
46492;DHT22;32206;51.446;6.792;2023-08-21T10:03:20;26.40;99.90
46492;DHT22;32206;51.446;6.792;2023-08-21T10:05:47;26.60;99.90
46492;DHT22;32206;51.446;6.792;2023-08-21T10:11:35;26.80;99.90
46492;DHT22;32206;51.446;6.792;2023-08-21T10:14:01;26.90;99.90
46492;DHT22;32206;51.446;6.792;2023-08-21T10:16:27;26.90;99.90
46492;DHT22;32206;51.446;6.792;2023-08-21T10:18:52;27.00;99.90
46492;DHT22;32206;51.446;6.792;2023-08-21T10:24:40;27.10;99.90
46492;DHT22;32206;51.446;6.792;2023-08-21T10:27:09;27.00;99.90
46492;DHT22;32206;51.446;6.792;2023-08-21T10:29:38;27.00;99.90
46492;DHT22;32206;51.446;6.792;2023-08-21T10:32:05;27.10;99.90
46492;DHT22;32206;51.446;6.792;2023-08-21T10:34:51;27.10;99.90
46492;DHT22;32206;51.446;6.792;2023-08-21T10:37:18;27.20;99.90
46492;DHT22;32206;51.446;6.792;2023-08-21T10:39:55;27.20;99.90
46492;DHT22;32206;51.446;6.792;2023-08-21T10:42:40;27.40;99.90
46492;DHT22;32206;51.446;6.792;2023-08-21T10:45:11;27.70;99.90
46492;DHT22;32206;51.446;6.792;2023-08-21T10:47:37;27.80;99.90
46492;DHT22;32206;51.446;6.792;2023-08-21T10:50:08;27.80;99.90
46492;DHT22;32206;51.446;6.792;2023-08-21T11:02:28;28.20;99.90
46492;DHT22;32206;51.446;6.792;2023-08-21T11:04:58;28.30;99.90
46492;DHT22;32206;51.446;6.792;2023-08-21T11:07:24;28.40;99.90
46492;DHT22;32206;51.446;6.792;2023-08-21T11:13:24;28.70;99.90
46492;DHT22;32206;51.446;6.792;2023-08-21T11:16:00;29.00;99.90
46492;DHT22;32206;51.446;6.792;2023-08-21T11:18:44;29.10;99.90
46492;DHT22;32206;51.446;6.792;2023-08-21T11:21:11;29.20;99.90
46492;DHT22;32206;51.446;6.792;2023-08-21T11:23:39;29.20;99.90
46492;DHT22;32206;51.446;6.792;2023-08-21T11:26:06;29.30;99.90
46492;DHT22;32206;51.446;6.792;2023-08-21T11:28:32;29.50;99.90
46492;DHT22;32206;51.446;6.792;2023-08-21T11:30:59;29.70;99.90
46492;DHT22;32206;51.446;6.792;2023-08-21T11:33:51;29.70;99.90
46492;DHT22;32206;51.446;6.792;2023-08-21T11:36:17;29.50;99.90
46492;DHT22;32206;51.446;6.792;2023-08-21T11:39:00;29.50;99.90
46492;DHT22;32206;51.446;6.792;2023-08-21T11:41:27;29.40;99.90
46492;DHT22;32206;51.446;6.792;2023-08-21T11:43:57;29.00;99.90
46492;DHT22;32206;51.446;6.792;2023-08-21T11:46:26;29.00;99.90
46492;DHT22;32206;51.446;6.792;2023-08-21T11:48:52;29.10;99.90
46492;DHT22;32206;51.446;6.792;2023-08-21T11:51:18;29.00;99.90
46492;DHT22;32206;51.446;6.792;2023-08-21T11:53:47;29.10;99.90
46492;DHT22;32206;51.446;6.792;2023-08-21T11:56:15;28.90;99.90
46492;DHT22;32206;51.446;6.792;2023-08-21T12:05:14;29.50;99.90
46492;DHT22;32206;51.446;6.792;2023-08-21T12:07:40;30.00;99.90
46492;DHT22;32206;51.446;6.792;2023-08-21T12:10:06;30.20;99.90
46492;DHT22;32206;51.446;6.792;2023-08-21T12:12:32;30.40;99.90
46492;DHT22;32206;51.446;6.792;2023-08-21T12:14:57;30.60;99.90
46492;DHT22;32206;51.446;6.792;2023-08-21T12:17:23;30.90;99.90
46492;DHT22;32206;51.446;6.792;2023-08-21T12:23:11;31.30;99.90
46492;DHT22;32206;51.446;6.792;2023-08-21T12:25:36;31.60;99.90
46492;DHT22;32206;51.446;6.792;2023-08-21T12:28:02;31.70;99.90
46492;DHT22;32206;51.446;6.792;2023-08-21T12:33:50;31.80;99.90
46492;DHT22;32206;51.446;6.792;2023-08-21T12:36:16;31.40;99.90
46492;DHT22;32206;51.446;6.792;2023-08-21T12:38:50;31.00;99.90
46492;DHT22;32206;51.446;6.792;2023-08-21T12:41:16;30.60;99.90
46492;DHT22;32206;51.446;6.792;2023-08-21T12:43:42;30.10;99.90
46492;DHT22;32206;51.446;6.792;2023-08-21T12:46:07;29.90;99.90
46492;DHT22;32206;51.446;6.792;2023-08-21T12:51:42;30.10;99.90
46492;DHT22;32206;51.446;6.792;2023-08-21T12:54:08;30.40;99.90
46492;DHT22;32206;51.446;6.792;2023-08-21T12:56:34;30.70;99.90
46492;DHT22;32206;51.446;6.792;2023-08-21T12:59:00;30.90;99.90
46492;DHT22;32206;51.446;6.792;2023-08-21T13:01:26;30.90;99.90
46492;DHT22;32206;51.446;6.792;2023-08-21T13:03:51;30.70;99.90
46492;DHT22;32206;51.446;6.792;2023-08-21T13:06:17;30.70;99.90
46492;DHT22;32206;51.446;6.792;2023-08-21T13:08:43;30.50;99.90
46492;DHT22;32206;51.446;6.792;2023-08-21T13:11:08;30.30;99.90
46492;DHT22;32206;51.446;6.792;2023-08-21T13:13:35;30.00;99.90
46492;DHT22;32206;51.446;6.792;2023-08-21T13:16:01;29.70;99.90
46492;DHT22;32206;51.446;6.792;2023-08-21T13:18:28;29.60;99.90
46492;DHT22;32206;51.446;6.792;2023-08-21T13:20:54;29.60;99.90
46492;DHT22;32206;51.446;6.792;2023-08-21T13:23:20;29.40;99.90
46492;DHT22;32206;51.446;6.792;2023-08-21T13:25:45;29.30;99.90
46492;DHT22;32206;51.446;6.792;2023-08-21T13:28:11;29.30;99.90
46492;DHT22;32206;51.446;6.792;2023-08-21T13:30:37;29.20;99.90
46492;DHT22;32206;51.446;6.792;2023-08-21T13:33:03;29.30;99.90
46492;DHT22;32206;51.446;6.792;2023-08-21T13:35:30;29.50;99.90
46492;DHT22;32206;51.446;6.792;2023-08-21T13:41:40;29.40;99.90
46492;DHT22;32206;51.446;6.792;2023-08-21T13:44:06;29.50;99.90
46492;DHT22;32206;51.446;6.792;2023-08-21T13:46:33;29.60;99.90
46492;DHT22;32206;51.446;6.792;2023-08-21T13:48:59;29.70;99.90
46492;DHT22;32206;51.446;6.792;2023-08-21T13:51:24;29.90;99.90
46492;DHT22;32206;51.446;6.792;2023-08-21T13:53:50;29.90;99.90
46492;DHT22;32206;51.446;6.792;2023-08-21T13:56:16;29.90;99.90
46492;DHT22;32206;51.446;6.792;2023-08-21T14:01:45;30.10;99.90
46492;DHT22;32206;51.446;6.792;2023-08-21T14:04:11;30.10;99.90
46492;DHT22;32206;51.446;6.792;2023-08-21T14:06:36;30.10;99.90
46492;DHT22;32206;51.446;6.792;2023-08-21T14:09:02;29.90;99.90
46492;DHT22;32206;51.446;6.792;2023-08-21T14:11:28;29.70;99.90
46492;DHT22;32206;51.446;6.792;2023-08-21T14:13:53;29.70;99.90
46492;DHT22;32206;51.446;6.792;2023-08-21T14:16:19;29.70;99.90
46492;DHT22;32206;51.446;6.792;2023-08-21T14:25:22;29.60;99.90
46492;DHT22;32206;51.446;6.792;2023-08-21T14:27:48;29.40;99.90
46492;DHT22;32206;51.446;6.792;2023-08-21T14:30:17;29.40;99.90
46492;DHT22;32206;51.446;6.792;2023-08-21T14:32:42;29.30;99.90
46492;DHT22;32206;51.446;6.792;2023-08-21T14:35:08;29.30;99.90
46492;DHT22;32206;51.446;6.792;2023-08-21T14:37:37;29.10;99.90
46492;DHT22;32206;51.446;6.792;2023-08-21T14:43:26;28.90;99.90
46492;DHT22;32206;51.446;6.792;2023-08-21T14:45:53;28.70;99.90
46492;DHT22;32206;51.446;6.792;2023-08-21T14:48:19;28.70;99.90
46492;DHT22;32206;51.446;6.792;2023-08-21T14:50:44;28.70;99.90
46492;DHT22;32206;51.446;6.792;2023-08-21T14:53:10;28.60;99.90
46492;DHT22;32206;51.446;6.792;2023-08-21T14:55:36;28.50;99.90
46492;DHT22;32206;51.446;6.792;2023-08-21T14:58:02;28.60;99.90
46492;DHT22;32206;51.446;6.792;2023-08-21T15:00:32;28.70;99.90
46492;DHT22;32206;51.446;6.792;2023-08-21T15:02:58;28.90;99.90
46492;DHT22;32206;51.446;6.792;2023-08-21T15:05:25;28.90;99.90
46492;DHT22;32206;51.446;6.792;2023-08-21T15:07:51;29.10;99.90
46492;DHT22;32206;51.446;6.792;2023-08-21T15:10:17;29.20;99.90
46492;DHT22;32206;51.446;6.792;2023-08-21T15:12:43;29.30;99.90
46492;DHT22;32206;51.446;6.792;2023-08-21T15:15:09;29.30;99.90
46492;DHT22;32206;51.446;6.792;2023-08-21T15:17:35;29.40;99.90
46492;DHT22;32206;51.446;6.792;2023-08-21T15:20:00;29.20;99.90
46492;DHT22;32206;51.446;6.792;2023-08-21T15:22:26;29.20;99.90
46492;DHT22;32206;51.446;6.792;2023-08-21T15:24:52;29.30;99.90
46492;DHT22;32206;51.446;6.792;2023-08-21T15:27:17;29.40;99.90
46492;DHT22;32206;51.446;6.792;2023-08-21T15:29:43;29.50;99.90
46492;DHT22;32206;51.446;6.792;2023-08-21T15:32:08;29.40;99.90
46492;DHT22;32206;51.446;6.792;2023-08-21T15:34:34;29.40;99.90
46492;DHT22;32206;51.446;6.792;2023-08-21T15:37:00;29.50;99.90
46492;DHT22;32206;51.446;6.792;2023-08-21T15:42:47;30.00;99.90
46492;DHT22;32206;51.446;6.792;2023-08-21T15:45:13;30.20;99.90
46492;DHT22;32206;51.446;6.792;2023-08-21T15:47:39;30.50;99.90
46492;DHT22;32206;51.446;6.792;2023-08-21T15:50:05;30.80;99.90
46492;DHT22;32206;51.446;6.792;2023-08-21T15:52:30;31.00;99.90
46492;DHT22;32206;51.446;6.792;2023-08-21T15:54:56;30.90;99.90
46492;DHT22;32206;51.446;6.792;2023-08-21T15:57:22;30.90;99.90
46492;DHT22;32206;51.446;6.792;2023-08-21T15:59:49;30.90;99.90
46492;DHT22;32206;51.446;6.792;2023-08-21T16:02:15;31.00;99.90
46492;DHT22;32206;51.446;6.792;2023-08-21T16:04:40;31.10;99.90
46492;DHT22;32206;51.446;6.792;2023-08-21T16:07:06;31.20;99.90
46492;DHT22;32206;51.446;6.792;2023-08-21T16:09:32;31.40;99.90
46492;DHT22;32206;51.446;6.792;2023-08-21T16:11:57;32.60;99.90
46492;DHT22;32206;51.446;6.792;2023-08-21T16:14:23;34.20;99.90
46492;DHT22;32206;51.446;6.792;2023-08-21T16:16:49;36.90;99.90
46492;DHT22;32206;51.446;6.792;2023-08-21T16:19:41;39.80;99.90
46492;DHT22;32206;51.446;6.792;2023-08-21T16:22:06;40.10;99.90
46492;DHT22;32206;51.446;6.792;2023-08-21T16:24:32;39.40;99.90
46492;DHT22;32206;51.446;6.792;2023-08-21T16:26:58;37.80;99.90
46492;DHT22;32206;51.446;6.792;2023-08-21T16:29:23;35.40;99.90
46492;DHT22;32206;51.446;6.792;2023-08-21T16:31:52;35.50;99.90
46492;DHT22;32206;51.446;6.792;2023-08-21T16:34:19;36.20;99.90
46492;DHT22;32206;51.446;6.792;2023-08-21T16:37:18;37.50;99.90
46492;DHT22;32206;51.446;6.792;2023-08-21T16:39:45;38.90;99.90
46492;DHT22;32206;51.446;6.792;2023-08-21T16:42:10;38.50;99.90
46492;DHT22;32206;51.446;6.792;2023-08-21T16:44:36;37.50;99.90
46492;DHT22;32206;51.446;6.792;2023-08-21T16:50:25;33.20;99.90
46492;DHT22;32206;51.446;6.792;2023-08-21T16:52:50;31.80;99.90
46492;DHT22;32206;51.446;6.792;2023-08-21T16:55:16;31.00;99.90
46492;DHT22;32206;51.446;6.792;2023-08-21T17:01:03;30.20;99.90
46492;DHT22;32206;51.446;6.792;2023-08-21T17:03:29;30.00;99.90
46492;DHT22;32206;51.446;6.792;2023-08-21T17:05:55;29.70;99.90
46492;DHT22;32206;51.446;6.792;2023-08-21T17:08:21;29.50;99.90
46492;DHT22;32206;51.446;6.792;2023-08-21T17:10:46;29.40;99.90
46492;DHT22;32206;51.446;6.792;2023-08-21T17:13:12;29.30;99.90
46492;DHT22;32206;51.446;6.792;2023-08-21T17:15:37;29.10;99.90
46492;DHT22;32206;51.446;6.792;2023-08-21T17:18:04;29.00;99.90
46492;DHT22;32206;51.446;6.792;2023-08-21T17:20:29;29.00;99.90
46492;DHT22;32206;51.446;6.792;2023-08-21T17:22:55;28.80;99.90
46492;DHT22;32206;51.446;6.792;2023-08-21T17:25:21;28.70;99.90
46492;DHT22;32206;51.446;6.792;2023-08-21T17:27:47;28.50;99.90
46492;DHT22;32206;51.446;6.792;2023-08-21T17:36:58;28.30;99.90
46492;DHT22;32206;51.446;6.792;2023-08-21T17:39:24;29.50;99.90
46492;DHT22;32206;51.446;6.792;2023-08-21T17:41:50;30.60;99.90
46492;DHT22;32206;51.446;6.792;2023-08-21T17:44:16;30.20;99.90
46492;DHT22;32206;51.446;6.792;2023-08-21T17:46:41;30.20;99.90
46492;DHT22;32206;51.446;6.792;2023-08-21T17:49:07;29.80;99.90
46492;DHT22;32206;51.446;6.792;2023-08-21T17:51:32;29.30;99.90
46492;DHT22;32206;51.446;6.792;2023-08-21T17:53:58;28.70;99.90
46492;DHT22;32206;51.446;6.792;2023-08-21T17:56:23;28.20;99.90
46492;DHT22;32206;51.446;6.792;2023-08-21T18:02:47;27.60;99.90
46492;DHT22;32206;51.446;6.792;2023-08-21T18:05:12;27.50;99.90
46492;DHT22;32206;51.446;6.792;2023-08-21T18:07:38;27.30;99.90
46492;DHT22;32206;51.446;6.792;2023-08-21T18:10:04;27.20;99.90
46492;DHT22;32206;51.446;6.792;2023-08-21T18:12:30;27.10;99.90
46492;DHT22;32206;51.446;6.792;2023-08-21T18:14:55;27.00;99.90
46492;DHT22;32206;51.446;6.792;2023-08-21T18:24:06;27.00;99.90
46492;DHT22;32206;51.446;6.792;2023-08-21T18:26:31;26.90;99.90
46492;DHT22;32206;51.446;6.792;2023-08-21T18:28:57;26.70;99.90
46492;DHT22;32206;51.446;6.792;2023-08-21T18:34:45;26.40;99.90
46492;DHT22;32206;51.446;6.792;2023-08-21T18:40:34;26.10;99.90
46492;DHT22;32206;51.446;6.792;2023-08-21T18:42:59;26.00;99.90